Sky Valley, California
Current Conditions -  °F | °C
As of 3:53 PM on Sunday 23 Nov 2014 (Local Time) from KPSP Reporting Station
Scattered Clouds Scattered Clouds  
Wind Chill: 74°   Ceiling: Unl
Heat Index: 74°   Visibility: 10mi
Dew Point:   Wind: 3mph
Humidity: 8%   Direction: 10°N
Pressure: 30.16"   Gusts: NA
Location:  33.8584°N, 116.312°W
Report Text: KPSP 232353Z 01003KT 10SM SCT220 23/M13 A3016 RMK AO2 SLP211 T02331133 10250 20233 56005
Loading
Personal Weather Stations






























Interactive Weather Map New forecast layout! Learn more

10-Day Weather Forecast

Advertisements
Track Severe Weather on mobile